Terminal Aerodrome Forecast
Issued by NWS Sterling, VA

Current Version | Previous Version | Text Only | Print | Product List | Glossary Off
Versions: 1 2 3 4 5 6 7 8 9 10 11 12 13 14 15 16 17 18 19 20 21 22 23 24 25 26

000
FTUS41 KLWX 261458 AAB
TAFDCA
TAF AMD
KDCA 261458Z 2615/2712 19010KT 5SM -SHRA BKN025 OVC050
      WS020/21040KT
      TEMPO 2615/2616 2SM SHRA OVC008
     FM261600 21010G18KT P6SM BKN025
     FM261800 20015G25KT P6SM BKN050
     FM270000 22010KT 3SM SHRA BKN025 OVC100
     FM270100 31016G26KT 5SM -SHRA OVC015
     FM270900 31012KT 5SM -SHRA OVC015=

USA.gov is the U.S. government's official web portal to all federal, state and local government web resources and services.